Wetterdaten: Woche 02.09.13 - 08.09.13 (KW36)
Datum Zeit Temp. A. Feuchte A. Luftdruck Regen Wind Richtung Taupunkt Windchill Windben
02.09.2013 00:00 13,6 C 77 % 1021,2 hPa 0,0 l/m 4,8 km/h (1 Bft) SW 9,6 C 13,6 C 11,8 km/h (2 Bft)
02.09.2013 01:00 13,3 C 80 % 1020,7 hPa 0,0 l/m 4,4 km/h (1 Bft) S-SW 9,9 C 13,3 C 11,8 km/h (2 Bft)
02.09.2013 02:00 13,6 C 80 % 1020,4 hPa 0,0 l/m 5,6 km/h (2 Bft) S-SW 10,3 C 13,6 C 14,1 km/h (3 Bft)
02.09.2013 03:00 13,7 C 80 % 1019,9 hPa 0,0 l/m 5,6 km/h (2 Bft) SW 10,3 C 13,6 C 14,2 km/h (3 Bft)
02.09.2013 04:00 13,5 C 81 % 1019,2 hPa 0,0 l/m 6,5 km/h (2 Bft) S-SW 10,4 C 13,3 C 16,5 km/h (3 Bft)
02.09.2013 05:00 13,6 C 81 % 1018,6 hPa 0,0 l/m 6,0 km/h (2 Bft) W-NW 10,4 C 13,5 C 14,2 km/h (3 Bft)
02.09.2013 06:00 13,7 C 82 % 1018,1 hPa 0,0 l/m 6,5 km/h (2 Bft) W 10,6 C 13,4 C 16,1 km/h (3 Bft)
02.09.2013 07:00 13,5 C 84 % 1017,9 hPa 0,0 l/m 6,2 km/h (2 Bft) W 10,9 C 13,5 C 16,4 km/h (3 Bft)
02.09.2013 08:00 13,3 C 87 % 1017,9 hPa 0,6 l/m 6,2 km/h (2 Bft) SW 11,2 C 13,2 C 15,7 km/h (3 Bft)
02.09.2013 09:00 13,6 C 88 % 1017,8 hPa 0,4 l/m 6,1 km/h (2 Bft) S-SW 11,6 C 13,4 C 17,3 km/h (3 Bft)
02.09.2013 10:00 14,2 C 85 % 1017,7 hPa 0,0 l/m 8,2 km/h (2 Bft) W-SW 11,8 C 13,2 C 19,3 km/h (3 Bft)
02.09.2013 11:00 13,9 C 88 % 1017,9 hPa 0,0 l/m 7,3 km/h (2 Bft) SW 11,9 C 13,3 C 20,1 km/h (4 Bft)
02.09.2013 12:00 14,3 C 88 % 1017,6 hPa 0,0 l/m 7,7 km/h (2 Bft) W-SW 12,3 C 13,6 C 18,8 km/h (3 Bft)
02.09.2013 13:00 14,4 C 90 % 1017,6 hPa 0,0 l/m 9,0 km/h (2 Bft) S-SW 12,7 C 13,1 C 18,9 km/h (3 Bft)
02.09.2013 14:00 14,5 C 91 % 1017,8 hPa 0,0 l/m 7,8 km/h (2 Bft) SW 13,1 C 13,8 C 18,9 km/h (3 Bft)
02.09.2013 15:00 15,0 C 91 % 1017,7 hPa 0,2 l/m 8,0 km/h (2 Bft) W 13,5 C 14,0 C 19,3 km/h (3 Bft)
02.09.2013 16:00 15,7 C 89 % 1017,8 hPa 0,0 l/m 7,7 km/h (2 Bft) W-NW 14,0 C 15,0 C 19,6 km/h (3 Bft)
02.09.2013 17:00 16,1 C 90 % 1017,7 hPa 0,0 l/m 6,7 km/h (2 Bft) W-SW 14,5 C 15,8 C 17,6 km/h (3 Bft)
02.09.2013 18:00 16,2 C 91 % 1017,9 hPa 0,0 l/m 7,2 km/h (2 Bft) W-SW 14,7 C 15,7 C 18,4 km/h (3 Bft)
02.09.2013 19:00 15,9 C 92 % 1018,3 hPa 0,0 l/m 6,5 km/h (2 Bft) W 14,6 C 15,7 C 17,4 km/h (3 Bft)
02.09.2013 20:00 15,9 C 92 % 1018,9 hPa 0,0 l/m 6,3 km/h (2 Bft) W-SW 14,7 C 15,8 C 16,9 km/h (3 Bft)
02.09.2013 21:00 15,8 C 93 % 1019,5 hPa 0,4 l/m 6,3 km/h (2 Bft) W-NW 14,7 C 15,7 C 17,2 km/h (3 Bft)
02.09.2013 22:00 15,9 C 93 % 1020,0 hPa 0,2 l/m 5,9 km/h (2 Bft) W-SW 14,7 C 15,7 C 16,3 km/h (3 Bft)
02.09.2013 23:00 15,7 C 94 % 1020,4 hPa 0,2 l/m 6,2 km/h (2 Bft) SW 14,7 C 15,5 C 15,8 km/h (3 Bft)
03.09.2013 00:00 15,6 C 93 % 1020,7 hPa 0,2 l/m 6,1 km/h (2 Bft) W-SW 14,5 C 15,4 C 17,4 km/h (3 Bft)
03.09.2013 01:00 15,6 C 92 % 1021,0 hPa 0,0 l/m 4,9 km/h (1 Bft) W 14,4 C 15,6 C 16,1 km/h (3 Bft)
03.09.2013 02:00 15,5 C 92 % 1021,0 hPa 0,0 l/m 4,4 km/h (1 Bft) W 14,1 C 15,5 C 13,3 km/h (3 Bft)
03.09.2013 03:00 15,7 C 91 % 1021,2 hPa 0,0 l/m 4,6 km/h (1 Bft) W 14,1 C 15,7 C 14,2 km/h (3 Bft)
03.09.2013 04:00 15,9 C 90 % 1021,4 hPa 0,0 l/m 3,8 km/h (1 Bft) W 14,2 C 15,9 C 14,1 km/h (3 Bft)
03.09.2013 05:00 16,1 C 90 % 1021,7 hPa 0,0 l/m 4,7 km/h (1 Bft) W-SW 14,4 C 16,0 C 13,0 km/h (3 Bft)
03.09.2013 06:00 16,0 C 90 % 1022,2 hPa 0,0 l/m 3,6 km/h (1 Bft) W 14,4 C 16,0 C 9,8 km/h (2 Bft)
03.09.2013 07:00 16,1 C 91 % 1022,6 hPa 0,0 l/m 3,4 km/h (1 Bft) W-SW 14,5 C 16,1 C 10,7 km/h (2 Bft)
03.09.2013 08:00 16,4 C 90 % 1023,1 hPa 0,0 l/m 3,8 km/h (1 Bft) W-SW 14,8 C 16,4 C 10,9 km/h (2 Bft)
03.09.2013 09:00 17,0 C 89 % 1023,8 hPa 0,0 l/m 4,7 km/h (1 Bft) W-NW 15,1 C 16,9 C 11,4 km/h (2 Bft)
03.09.2013 10:00 17,8 C 87 % 1024,2 hPa 0,0 l/m 4,3 km/h (1 Bft) W 15,7 C 17,8 C 11,8 km/h (2 Bft)
03.09.2013 11:00 18,7 C 86 % 1024,7 hPa 0,0 l/m 4,0 km/h (1 Bft) W-NW 16,2 C 18,7 C 10,7 km/h (2 Bft)
03.09.2013 12:00 19,1 C 85 % 1025,0 hPa 0,0 l/m 4,1 km/h (1 Bft) W-NW 16,4 C 19,1 C 10,5 km/h (2 Bft)
03.09.2013 13:00 19,7 C 83 % 1025,1 hPa 0,0 l/m 4,3 km/h (1 Bft) W-NW 16,7 C 19,7 C 11,0 km/h (2 Bft)
03.09.2013 14:00 20,4 C 81 % 1025,1 hPa 0,0 l/m 4,6 km/h (1 Bft) W 17,0 C 20,3 C 10,8 km/h (2 Bft)
03.09.2013 15:00 20,3 C 81 % 1025,1 hPa 0,0 l/m 4,9 km/h (1 Bft) NW 16,9 C 20,3 C 12,2 km/h (2 Bft)
03.09.2013 16:00 20,3 C 81 % 1025,2 hPa 0,0 l/m 3,9 km/h (1 Bft) W-NW 17,0 C 20,3 C 9,7 km/h (2 Bft)
03.09.2013 17:00 19,1 C 87 % 1025,3 hPa 0,0 l/m 1,0 km/h (0 Bft) W-SW 16,9 C 19,1 C 4,1 km/h (1 Bft)
03.09.2013 18:00 18,5 C 90 % 1025,3 hPa 1,0 l/m 1,0 km/h (0 Bft) W 16,9 C 18,5 C 3,5 km/h (1 Bft)
03.09.2013 19:00 17,9 C 93 % 1025,4 hPa 0,6 l/m 0,3 km/h (0 Bft) N 16,8 C 17,9 C 2,7 km/h (1 Bft)
03.09.2013 20:00 17,7 C 94 % 1025,7 hPa 0,4 l/m 0,6 km/h (0 Bft) N-NO 16,6 C 17,7 C 3,3 km/h (1 Bft)
03.09.2013 21:00 17,5 C 94 % 1026,1 hPa 0,0 l/m 0,7 km/h (0 Bft) N-NO 16,5 C 17,5 C 2,7 km/h (1 Bft)
03.09.2013 22:00 17,3 C 94 % 1026,1 hPa 0,0 l/m 0,0 km/h (0 Bft) N 16,3 C 17,3 C 0,0 km/h (0 Bft)
03.09.2013 23:00 17,0 C 94 % 1026,2 hPa 0,0 l/m 0,0 km/h (0 Bft) N 16,0 C 17,0 C 0,0 km/h (0 Bft)
04.09.2013 00:00 16,9 C 95 % 1026,2 hPa 0,0 l/m 0,0 km/h (0 Bft) N 16,0 C 16,9 C 0,0 km/h (0 Bft)
04.09.2013 01:00 16,8 C 95 % 1026,0 hPa 0,0 l/m 0,0 km/h (0 Bft) N 16,0 C 16,8 C 0,0 km/h (0 Bft)
04.09.2013 02:00 16,7 C 95 % 1025,8 hPa 0,0 l/m 0,0 km/h (0 Bft) N-NO 15,9 C 16,7 C 0,3 km/h (0 Bft)
04.09.2013 03:00 16,3 C 95 % 1025,6 hPa 0,0 l/m 0,2 km/h (0 Bft) N 15,5 C 16,3 C 0,5 km/h (0 Bft)
04.09.2013 04:00 16,1 C 95 % 1025,5 hPa 0,0 l/m 0,0 km/h (0 Bft) N 15,3 C 16,1 C 0,0 km/h (0 Bft)
04.09.2013 05:00 16,0 C 95 % 1025,4 hPa 0,0 l/m 0,0 km/h (0 Bft) N 15,2 C 16,0 C 0,0 km/h (0 Bft)
04.09.2013 06:00 15,9 C 96 % 1025,3 hPa 0,0 l/m 0,0 km/h (0 Bft) N 15,2 C 15,9 C 0,0 km/h (0 Bft)
04.09.2013 07:00 16,0 C 96 % 1025,4 hPa 0,0 l/m 0,0 km/h (0 Bft) N 15,3 C 16,0 C 0,0 km/h (0 Bft)
04.09.2013 08:00 16,5 C 96 % 1025,4 hPa 0,0 l/m 0,0 km/h (0 Bft) O 15,8 C 16,5 C 0,0 km/h (0 Bft)
04.09.2013 09:00 17,1 C 95 % 1025,3 hPa 0,0 l/m 0,3 km/h (0 Bft) N 16,2 C 17,1 C 1,6 km/h (1 Bft)
04.09.2013 10:00 17,8 C 92 % 1025,5 hPa 0,0 l/m 0,1 km/h (0 Bft) N 16,5 C 17,8 C 0,7 km/h (0 Bft)
04.09.2013 11:00 18,7 C 88 % 1025,4 hPa 0,0 l/m 1,3 km/h (1 Bft) O 16,7 C 18,7 C 3,4 km/h (1 Bft)
04.09.2013 12:00 18,5 C 88 % 1025,3 hPa 0,0 l/m 3,2 km/h (1 Bft) NO 16,5 C 18,5 C 6,6 km/h (2 Bft)
04.09.2013 13:00 18,8 C 87 % 1025,0 hPa 0,0 l/m 3,6 km/h (1 Bft) O 16,6 C 18,8 C 6,8 km/h (2 Bft)
04.09.2013 14:00 20,0 C 84 % 1024,6 hPa 0,0 l/m 2,6 km/h (1 Bft) O-NO 17,2 C 20,0 C 6,3 km/h (2 Bft)
04.09.2013 15:00 20,5 C 82 % 1024,1 hPa 0,0 l/m 4,8 km/h (1 Bft) NO 17,4 C 20,5 C 9,1 km/h (2 Bft)
04.09.2013 16:00 21,3 C 78 % 1023,5 hPa 0,0 l/m 3,9 km/h (1 Bft) NO 17,4 C 21,3 C 7,9 km/h (2 Bft)
04.09.2013 17:00 21,6 C 77 % 1022,9 hPa 0,0 l/m 4,1 km/h (1 Bft) NO 17,3 C 21,6 C 8,3 km/h (2 Bft)
04.09.2013 18:00 21,3 C 77 % 1022,5 hPa 0,0 l/m 3,6 km/h (1 Bft) O-NO 17,0 C 21,3 C 7,3 km/h (2 Bft)
04.09.2013 19:00 19,6 C 82 % 1022,3 hPa 0,0 l/m 3,8 km/h (1 Bft) NO 16,6 C 19,6 C 7,0 km/h (2 Bft)
04.09.2013 20:00 17,6 C 87 % 1022,6 hPa 0,0 l/m 2,0 km/h (1 Bft) O-NO 15,5 C 17,6 C 4,6 km/h (1 Bft)
04.09.2013 21:00 16,7 C 89 % 1022,7 hPa 0,0 l/m 1,2 km/h (1 Bft) O-NO 14,9 C 16,7 C 3,9 km/h (1 Bft)
04.09.2013 22:00 15,9 C 91 % 1022,5 hPa 0,0 l/m 0,7 km/h (0 Bft) O-NO 14,4 C 15,9 C 3,2 km/h (1 Bft)
04.09.2013 23:00 15,4 C 91 % 1022,4 hPa 0,0 l/m 0,1 km/h (0 Bft) N 14,0 C 15,4 C 0,8 km/h (0 Bft)
05.09.2013 00:00 14,6 C 93 % 1022,1 hPa 0,0 l/m 0,0 km/h (0 Bft) N 13,5 C 14,6 C 0,0 km/h (0 Bft)
05.09.2013 01:00 14,3 C 94 % 1021,9 hPa 0,0 l/m 0,0 km/h (0 Bft) N 13,3 C 14,3 C 0,3 km/h (0 Bft)
05.09.2013 02:00 14,5 C 94 % 1021,4 hPa 0,0 l/m 0,1 km/h (0 Bft) N 13,5 C 14,5 C 1,2 km/h (1 Bft)
05.09.2013 03:00 14,6 C 93 % 1021,2 hPa 0,0 l/m 0,0 km/h (0 Bft) N 13,6 C 14,6 C 0,4 km/h (0 Bft)
05.09.2013 04:00 14,1 C 94 % 1020,7 hPa 0,0 l/m 0,1 km/h (0 Bft) N 13,1 C 14,1 C 0,9 km/h (0 Bft)
05.09.2013 05:00 14,1 C 94 % 1020,3 hPa 0,0 l/m 1,1 km/h (0 Bft) O 13,2 C 14,1 C 4,3 km/h (1 Bft)
05.09.2013 06:00 13,8 C 93 % 1019,9 hPa 0,0 l/m 0,3 km/h (0 Bft) N 12,8 C 13,8 C 1,6 km/h (1 Bft)
05.09.2013 07:00 14,2 C 94 % 1019,7 hPa 0,0 l/m 1,1 km/h (1 Bft) O-SO 13,2 C 14,2 C 4,7 km/h (1 Bft)
05.09.2013 08:00 16,3 C 90 % 1019,6 hPa 0,0 l/m 2,2 km/h (1 Bft) O 14,6 C 16,3 C 7,5 km/h (2 Bft)
05.09.2013 09:00 18,7 C 84 % 1019,5 hPa 0,2 l/m 3,7 km/h (1 Bft) O-SO 15,9 C 18,7 C 10,9 km/h (2 Bft)
05.09.2013 10:00 20,6 C 77 % 1019,3 hPa 0,0 l/m 6,0 km/h (2 Bft) O-SO 16,5 C 20,4 C 14,9 km/h (3 Bft)
05.09.2013 11:00 21,9 C 73 % 1018,8 hPa 0,0 l/m 6,0 km/h (2 Bft) S 16,8 C 21,8 C 14,1 km/h (3 Bft)
05.09.2013 12:00 23,3 C 69 % 1018,2 hPa 0,0 l/m 5,7 km/h (2 Bft) O-SO 17,2 C 23,2 C 13,9 km/h (3 Bft)
05.09.2013 13:00 24,5 C 65 % 1017,6 hPa 0,0 l/m 6,8 km/h (2 Bft) S 17,4 C 24,3 C 16,2 km/h (3 Bft)
05.09.2013 14:00 25,3 C 62 % 1017,0 hPa 0,0 l/m 7,7 km/h (2 Bft) O 17,4 C 25,0 C 15,5 km/h (3 Bft)
05.09.2013 15:00 25,9 C 59 % 1016,3 hPa 0,0 l/m 6,9 km/h (2 Bft) O-SO 17,2 C 25,7 C 16,2 km/h (3 Bft)
05.09.2013 16:00 26,2 C 57 % 1015,7 hPa 0,0 l/m 6,9 km/h (2 Bft) SO 16,9 C 26,0 C 17,7 km/h (3 Bft)
05.09.2013 17:00 26,0 C 55 % 1015,1 hPa 0,0 l/m 6,6 km/h (2 Bft) O 16,3 C 25,9 C 18,0 km/h (3 Bft)
05.09.2013 18:00 25,3 C 56 % 1014,7 hPa 0,0 l/m 5,5 km/h (2 Bft) O-SO 15,7 C 25,2 C 14,2 km/h (3 Bft)
05.09.2013 19:00 23,7 C 61 % 1014,6 hPa 0,0 l/m 3,0 km/h (1 Bft) O-SO 15,6 C 23,7 C 9,4 km/h (2 Bft)
05.09.2013 20:00 21,9 C 66 % 1014,7 hPa 0,0 l/m 2,7 km/h (1 Bft) O 15,1 C 21,9 C 9,2 km/h (2 Bft)
05.09.2013 21:00 20,4 C 69 % 1014,7 hPa 0,0 l/m 1,8 km/h (1 Bft) SO 14,4 C 20,4 C 6,0 km/h (2 Bft)
05.09.2013 22:00 19,7 C 71 % 1014,8 hPa 0,0 l/m 3,4 km/h (1 Bft) O 14,3 C 19,7 C 11,1 km/h (2 Bft)
05.09.2013 23:00 18,7 C 74 % 1014,6 hPa 0,0 l/m 3,2 km/h (1 Bft) O-SO 14,0 C 18,7 C 10,7 km/h (2 Bft)
06.09.2013 00:00 17,8 C 77 % 1014,3 hPa 0,0 l/m 3,1 km/h (1 Bft) O-SO 13,6 C 17,8 C 9,8 km/h (2 Bft)
06.09.2013 01:00 16,9 C 79 % 1013,9 hPa 0,0 l/m 1,7 km/h (1 Bft) O-SO 13,2 C 16,9 C 6,8 km/h (2 Bft)
06.09.2013 02:00 16,1 C 82 % 1013,4 hPa 0,0 l/m 0,6 km/h (0 Bft) O 12,9 C 16,1 C 3,5 km/h (1 Bft)
06.09.2013 03:00 15,3 C 84 % 1013,1 hPa 0,0 l/m 0,6 km/h (0 Bft) O-NO 12,6 C 15,3 C 3,9 km/h (1 Bft)
06.09.2013 04:00 14,7 C 87 % 1012,7 hPa 0,0 l/m 0,5 km/h (0 Bft) O 12,5 C 14,7 C 2,7 km/h (1 Bft)
06.09.2013 05:00 14,5 C 88 % 1012,5 hPa 0,0 l/m 0,4 km/h (0 Bft) N 12,4 C 14,5 C 4,0 km/h (1 Bft)
06.09.2013 06:00 13,7 C 89 % 1012,4 hPa 0,0 l/m 0,4 km/h (0 Bft) O 11,9 C 13,7 C 2,7 km/h (1 Bft)
06.09.2013 07:00 14,2 C 89 % 1012,4 hPa 0,0 l/m 0,7 km/h (0 Bft) O-SO 12,5 C 14,2 C 3,6 km/h (1 Bft)
06.09.2013 08:00 16,3 C 85 % 1012,5 hPa 0,0 l/m 3,2 km/h (1 Bft) SO 13,7 C 16,3 C 9,3 km/h (2 Bft)
06.09.2013 09:00 18,6 C 79 % 1012,6 hPa 0,0 l/m 4,0 km/h (1 Bft) O-SO 14,8 C 18,6 C 10,1 km/h (2 Bft)
06.09.2013 10:00 21,3 C 71 % 1012,5 hPa 0,0 l/m 4,0 km/h (1 Bft) O 15,9 C 21,3 C 9,7 km/h (2 Bft)
06.09.2013 11:00 24,1 C 61 % 1012,1 hPa 0,0 l/m 5,5 km/h (2 Bft) SO 16,2 C 24,1 C 14,0 km/h (3 Bft)
06.09.2013 12:00 26,6 C 51 % 1011,7 hPa 0,0 l/m 6,8 km/h (2 Bft) SO 15,5 C 26,4 C 15,4 km/h (3 Bft)
06.09.2013 13:00 27,6 C 45 % 1011,3 hPa 0,0 l/m 6,6 km/h (2 Bft) S 14,4 C 27,5 C 15,7 km/h (3 Bft)
06.09.2013 14:00 28,3 C 40 % 1011,0 hPa 0,0 l/m 7,0 km/h (2 Bft) S-SO 13,2 C 28,1 C 17,3 km/h (3 Bft)
06.09.2013 15:00 28,9 C 36 % 1010,6 hPa 0,0 l/m 7,2 km/h (2 Bft) S-SO 12,2 C 28,7 C 16,8 km/h (3 Bft)
06.09.2013 16:00 29,0 C 38 % 1010,4 hPa 0,0 l/m 7,2 km/h (2 Bft) S 13,1 C 28,9 C 18,1 km/h (3 Bft)
06.09.2013 17:00 28,6 C 39 % 1010,2 hPa 0,0 l/m 6,8 km/h (2 Bft) O-SO 13,4 C 28,5 C 18,4 km/h (3 Bft)
06.09.2013 18:00 27,0 C 46 % 1010,4 hPa 0,0 l/m 7,5 km/h (2 Bft) O-SO 14,4 C 26,8 C 16,9 km/h (3 Bft)
06.09.2013 19:00 25,2 C 51 % 1010,8 hPa 0,0 l/m 5,8 km/h (2 Bft) O-SO 14,3 C 25,1 C 14,9 km/h (3 Bft)
06.09.2013 20:00 23,5 C 55 % 1011,3 hPa 0,0 l/m 5,3 km/h (1 Bft) SW 13,9 C 23,4 C 13,5 km/h (3 Bft)
06.09.2013 21:00 22,5 C 56 % 1011,9 hPa 0,0 l/m 6,2 km/h (2 Bft) SO 13,4 C 22,4 C 14,9 km/h (3 Bft)
06.09.2013 22:00 21,3 C 59 % 1012,4 hPa 0,0 l/m 4,5 km/h (1 Bft) S-SO 12,9 C 21,3 C 12,1 km/h (2 Bft)
06.09.2013 23:00 20,2 C 61 % 1012,5 hPa 0,0 l/m 3,9 km/h (1 Bft) O-SO 12,4 C 20,2 C 10,1 km/h (2 Bft)
07.09.2013 00:00 19,3 C 66 % 1012,5 hPa 0,0 l/m 3,9 km/h (1 Bft) O-SO 12,7 C 19,3 C 10,5 km/h (2 Bft)
07.09.2013 01:00 18,4 C 70 % 1012,7 hPa 0,0 l/m 3,3 km/h (1 Bft) O-SO 12,9 C 18,4 C 9,1 km/h (2 Bft)
07.09.2013 02:00 17,5 C 73 % 1013,0 hPa 0,0 l/m 1,9 km/h (1 Bft) O-SO 12,6 C 17,5 C 6,1 km/h (2 Bft)
07.09.2013 03:00 17,0 C 73 % 1013,4 hPa 0,0 l/m 1,8 km/h (1 Bft) SO 12,1 C 17,0 C 6,2 km/h (2 Bft)
07.09.2013 04:00 16,4 C 74 % 1013,8 hPa 0,0 l/m 2,1 km/h (1 Bft) O-SO 11,8 C 16,4 C 6,4 km/h (2 Bft)
07.09.2013 05:00 15,6 C 76 % 1014,1 hPa 0,0 l/m 0,9 km/h (0 Bft) O-SO 11,3 C 15,6 C 3,5 km/h (1 Bft)
07.09.2013 06:00 14,3 C 80 % 1014,5 hPa 0,0 l/m 0,1 km/h (0 Bft) N 10,8 C 14,3 C 1,7 km/h (1 Bft)
07.09.2013 07:00 15,2 C 78 % 1015,0 hPa 0,0 l/m 1,7 km/h (1 Bft) O 11,4 C 15,2 C 4,9 km/h (1 Bft)
07.09.2013 08:00 17,3 C 73 % 1015,3 hPa 0,0 l/m 3,0 km/h (1 Bft) O-SO 12,3 C 17,3 C 7,1 km/h (2 Bft)
07.09.2013 09:00 19,0 C 69 % 1015,5 hPa 0,0 l/m 3,9 km/h (1 Bft) SO 13,1 C 19,0 C 8,8 km/h (2 Bft)
07.09.2013 10:00 20,9 C 65 % 1016,1 hPa 0,0 l/m 2,4 km/h (1 Bft) O-SO 14,0 C 20,9 C 7,2 km/h (2 Bft)
07.09.2013 11:00 22,9 C 60 % 1016,4 hPa 0,0 l/m 1,8 km/h (1 Bft) O-SO 14,7 C 22,9 C 5,1 km/h (1 Bft)
07.09.2013 12:00 24,6 C 56 % 1016,5 hPa 0,0 l/m 2,6 km/h (1 Bft) NO 15,1 C 24,6 C 6,3 km/h (2 Bft)
07.09.2013 13:00 25,9 C 53 % 1016,6 hPa 0,0 l/m 2,3 km/h (1 Bft) N-NO 15,4 C 25,9 C 5,3 km/h (1 Bft)
07.09.2013 14:00 26,1 C 52 % 1016,7 hPa 0,0 l/m 2,7 km/h (1 Bft) N-NW 15,4 C 26,1 C 6,4 km/h (2 Bft)
07.09.2013 15:00 27,5 C 49 % 1016,5 hPa 0,0 l/m 3,8 km/h (1 Bft) NO 15,9 C 27,5 C 8,9 km/h (2 Bft)
07.09.2013 16:00 26,9 C 52 % 1016,4 hPa 0,0 l/m 3,2 km/h (1 Bft) NW 16,3 C 26,9 C 5,5 km/h (2 Bft)
07.09.2013 17:00 26,1 C 57 % 1016,3 hPa 0,0 l/m 1,9 km/h (1 Bft) N 16,9 C 26,1 C 3,9 km/h (1 Bft)
07.09.2013 18:00 25,4 C 60 % 1016,4 hPa 0,0 l/m 0,7 km/h (0 Bft) N-NW 17,1 C 25,4 C 2,1 km/h (1 Bft)
07.09.2013 19:00 22,9 C 69 % 1016,5 hPa 0,0 l/m 0,0 km/h (0 Bft) N 16,9 C 22,9 C 0,0 km/h (0 Bft)
07.09.2013 20:00 21,0 C 71 % 1017,0 hPa 0,0 l/m 0,5 km/h (0 Bft) O 15,6 C 21,0 C 1,3 km/h (1 Bft)
07.09.2013 21:00 21,6 C 60 % 1017,3 hPa 0,0 l/m 3,8 km/h (1 Bft) O 13,5 C 21,6 C 7,9 km/h (2 Bft)
07.09.2013 22:00 20,7 C 61 % 1017,3 hPa 0,0 l/m 2,9 km/h (1 Bft) O 12,8 C 20,7 C 7,2 km/h (2 Bft)
07.09.2013 23:00 19,8 C 63 % 1017,3 hPa 0,0 l/m 3,5 km/h (1 Bft) O 12,5 C 19,8 C 8,2 km/h (2 Bft)
08.09.2013 00:00 19,3 C 63 % 1017,1 hPa 0,0 l/m 3,1 km/h (1 Bft) O-SO 12,1 C 19,3 C 8,0 km/h (2 Bft)
08.09.2013 01:00 18,4 C 65 % 1017,0 hPa 0,0 l/m 1,9 km/h (1 Bft) O-NO 11,7 C 18,4 C 5,8 km/h (2 Bft)
08.09.2013 02:00 17,6 C 66 % 1016,6 hPa 0,0 l/m 2,8 km/h (1 Bft) O 11,2 C 17,6 C 6,8 km/h (2 Bft)
08.09.2013 03:00 17,0 C 66 % 1016,5 hPa 0,0 l/m 3,8 km/h (1 Bft) O 10,7 C 17,0 C 7,9 km/h (2 Bft)
08.09.2013 04:00 16,4 C 68 % 1016,4 hPa 0,0 l/m 2,8 km/h (1 Bft) O 10,4 C 16,4 C 6,0 km/h (2 Bft)
08.09.2013 05:00 15,6 C 70 % 1015,7 hPa 0,0 l/m 3,8 km/h (1 Bft) O-NO 10,1 C 15,6 C 9,0 km/h (2 Bft)
08.09.2013 06:00 15,6 C 71 % 1015,2 hPa 0,0 l/m 5,3 km/h (1 Bft) O-NO 10,2 C 15,5 C 11,3 km/h (2 Bft)
08.09.2013 07:00 16,0 C 71 % 1015,0 hPa 0,0 l/m 6,1 km/h (2 Bft) O 10,7 C 15,8 C 14,6 km/h (3 Bft)
08.09.2013 08:00 16,1 C 72 % 1015,1 hPa 0,0 l/m 6,5 km/h (2 Bft) O 11,0 C 15,8 C 14,9 km/h (3 Bft)
08.09.2013 09:00 17,3 C 70 % 1015,1 hPa 0,0 l/m 7,0 km/h (2 Bft) S-SO 11,9 C 16,9 C 16,9 km/h (3 Bft)
08.09.2013 10:00 18,9 C 67 % 1015,5 hPa 0,0 l/m 5,2 km/h (1 Bft) SO 12,7 C 18,8 C 11,9 km/h (2 Bft)
08.09.2013 11:00 19,3 C 67 % 1015,6 hPa 0,0 l/m 2,7 km/h (1 Bft) O-SO 13,0 C 19,3 C 7,8 km/h (2 Bft)
08.09.2013 12:00 18,3 C 78 % 1016,1 hPa 1,2 l/m 1,0 km/h (0 Bft) S 14,4 C 18,3 C 3,2 km/h (1 Bft)
08.09.2013 13:00 17,4 C 87 % 1016,3 hPa 1,6 l/m 1,4 km/h (1 Bft) S 15,2 C 17,4 C 4,4 km/h (1 Bft)
08.09.2013 14:00 18,3 C 88 % 1016,4 hPa 0,0 l/m 3,6 km/h (1 Bft) S-SO 16,2 C 18,3 C 8,2 km/h (2 Bft)
08.09.2013 15:00 17,6 C 88 % 1017,1 hPa 0,0 l/m 4,4 km/h (1 Bft) S-SW 15,5 C 17,5 C 10,3 km/h (2 Bft)
08.09.2013 16:00 17,0 C 86 % 1017,8 hPa 0,0 l/m 4,3 km/h (1 Bft) S-SW 14,6 C 17,0 C 10,6 km/h (2 Bft)
08.09.2013 17:00 17,1 C 81 % 1018,3 hPa 0,0 l/m 4,3 km/h (1 Bft) W-SW 13,7 C 17,1 C 12,0 km/h (2 Bft)
08.09.2013 18:00 16,5 C 81 % 1018,9 hPa 0,0 l/m 4,1 km/h (1 Bft) W-SW 13,2 C 16,5 C 11,7 km/h (2 Bft)
08.09.2013 19:00 15,3 C 85 % 1019,0 hPa 0,0 l/m 3,4 km/h (1 Bft) W-SW 12,8 C 15,3 C 9,4 km/h (2 Bft)
08.09.2013 20:00 14,5 C 87 % 1019,1 hPa 0,0 l/m 1,6 km/h (1 Bft) W-NW 12,3 C 14,5 C 5,1 km/h (1 Bft)
08.09.2013 21:00 14,1 C 86 % 1018,9 hPa 0,0 l/m 2,0 km/h (1 Bft) NW 11,8 C 14,1 C 4,8 km/h (1 Bft)
08.09.2013 22:00 13,6 C 87 % 1019,0 hPa 0,0 l/m 0,0 km/h (0 Bft) N 11,5 C 13,6 C 0,0 km/h (0 Bft)
08.09.2013 23:00 12,9 C 89 % 1018,5 hPa 0,0 l/m 0,2 km/h (0 Bft) N 11,2 C 12,9 C 0,9 km/h (0 Bft)
Min-Datum _ 08.09.13 06.09.13 06.09.13 - 03.09.13 - 02.09.13 02.09.13 03.09.13
_ Min-Zeit 23:55 15:45 17:30 - 17:11 - 00:25 13:11 19:45
Minimum _ 12,4 C 34 % 1010,1 hPa - 0,0 km/h (0 Bft) - 9,4 C 9,5 C 0,0 km/h (0 Bft)
Max-Datum _ 06.09.13 04.09.13 03.09.13 08.09.13 02.09.13 - 04.09.13 06.09.13 02.09.13
_ Max-Zeit 16:30 06:00 23:55 13:00 13:11 - 17:00 16:30 10:55
Maximum _ 29,2 C 96 % 1026,3 hPa 1,6 l/m 17,7 km/h
S-SW (3 Bft)
- 17,8 C 29,2 C 29,0 km/h
SW (5 Bft)
Durchschnitt _ 18,4 C 78 % 1018,5 hPa #7,2 l/m 3,5 km/h (1 Bft) O-SO 14,1 C 18,3 C 9,1 km/h (2 Bft)